Time;durP1;ratioP1;P1;durP2;ratioP2;P2;SDS_P1;SDS_P2;PMS_P1;PMS_P2;Temp;Humidity;BMP_temperature;BMP_pressure;BME280_temperature;BME280_humidity;BME280_pressure;Samples;Min_cycle;Max_cycle;Signal;HPM_P1;HPM_P2
2021/10/20 00:00:17;;;;;;;10.10;8.85;;;14.40;99.90;;;;;;5092920;28;20135;-77
2021/10/20 00:02:43;;;;;;;10.25;8.60;;;14.30;99.90;;;;;;5091707;28;20028;-74
2021/10/20 00:05:09;;;;;;;12.02;9.13;;;14.30;99.90;;;;;;5092744;28;20081;-77
2021/10/20 00:07:35;;;;;;;9.60;8.50;;;14.30;99.90;;;;;;5093038;28;20016;-76
2021/10/20 00:10:00;;;;;;;9.57;8.15;;;14.30;99.90;;;;;;5091545;28;20020;-75
2021/10/20 00:12:26;;;;;;;10.90;9.02;;;14.30;99.90;;;;;;5092740;28;20115;-77
2021/10/20 00:14:52;;;;;;;10.63;8.63;;;14.30;99.90;;;;;;5092405;28;20024;-76
2021/10/20 00:17:17;;;;;;;9.95;8.23;;;14.20;99.90;;;;;;5091258;28;20373;-75
2021/10/20 00:19:43;;;;;;;9.18;8.35;;;14.20;99.90;;;;;;5092327;28;20528;-76
2021/10/20 00:22:08;;;;;;;10.43;8.57;;;14.30;99.90;;;;;;5078189;28;20457;-76
2021/10/20 00:24:34;;;;;;;9.25;8.15;;;14.20;99.90;;;;;;5092310;28;20395;-76
2021/10/20 00:27:00;;;;;;;9.05;8.13;;;14.30;99.90;;;;;;5092739;28;20032;-75
2021/10/20 00:29:25;;;;;;;8.98;7.82;;;14.30;99.90;;;;;;5092742;28;20495;-76
2021/10/20 00:31:51;;;;;;;8.75;7.85;;;14.20;99.90;;;;;;5092185;28;20594;-75
2021/10/20 00:34:16;;;;;;;9.48;8.55;;;14.30;99.90;;;;;;5092608;28;20031;-74
2021/10/20 00:36:42;;;;;;;9.07;8.07;;;14.30;99.90;;;;;;5092404;28;20113;-75
2021/10/20 00:39:08;;;;;;;8.70;8.00;;;14.30;99.90;;;;;;5077740;28;20025;-75
2021/10/20 00:41:33;;;;;;;10.80;8.05;;;14.30;99.90;;;;;;5092465;28;20028;-77
2021/10/20 00:43:59;;;;;;;9.00;8.15;;;14.30;99.90;;;;;;5071624;28;20425;-76
2021/10/20 00:46:29;;;;;;;9.52;8.63;;;14.30;99.90;;;;;;5071175;28;20053;-74
2021/10/20 00:48:56;;;;;;;9.80;7.68;;;14.40;99.90;;;;;;5071708;28;20104;-74
2021/10/20 00:51:25;;;;;;;9.48;8.48;;;14.40;99.90;;;;;;5071809;28;20059;-74
2021/10/20 00:53:55;;;;;;;9.48;8.50;;;14.40;99.90;;;;;;5070870;28;20060;-75
2021/10/20 00:56:21;;;;;;;10.07;8.05;;;14.40;99.90;;;;;;5071931;28;20078;-75
2021/10/20 00:58:47;;;;;;;9.70;8.70;;;14.40;99.90;;;;;;5057668;28;20029;-76
2021/10/20 01:01:12;;;;;;;10.18;8.82;;;14.40;99.90;;;;;;5072032;28;20369;-75
2021/10/20 01:03:38;;;;;;;9.20;8.30;;;15.00;99.90;;;;;;5072511;28;20025;-76
2021/10/20 01:06:04;;;;;;;12.68;8.70;;;14.50;99.90;;;;;;5070766;28;20439;-76
2021/10/20 01:08:31;;;;;;;9.60;8.60;;;14.60;99.90;;;;;;5071439;28;20448;-75
2021/10/20 01:10:56;;;;;;;10.18;9.10;;;14.60;99.90;;;;;;5072034;28;20086;-74
2021/10/20 01:13:23;;;;;;;12.90;9.02;;;14.70;99.90;;;;;;5071205;28;20021;-74
2021/10/20 01:15:48;;;;;;;12.13;9.43;;;14.70;99.90;;;;;;5071847;28;20047;-74
2021/10/20 01:18:14;;;;;;;12.23;10.02;;;14.70;99.90;;;;;;5059574;28;20400;-75
2021/10/20 01:20:42;;;;;;;12.73;9.55;;;14.80;99.90;;;;;;5069369;28;20043;-77
2021/10/20 01:23:08;;;;;;;12.18;9.23;;;14.70;99.90;;;;;;5071534;28;20468;-75
2021/10/20 01:25:33;;;;;;;16.55;10.32;;;14.80;99.90;;;;;;5071456;28;20024;-75
2021/10/20 01:28:02;;;;;;;19.10;9.88;;;14.90;99.90;;;;;;5072558;28;20353;-76
2021/10/20 01:30:27;;;;;;;11.70;9.10;;;14.90;99.90;;;;;;5074216;28;20029;-74
2021/10/20 01:32:53;;;;;;;11.73;9.90;;;14.90;99.90;;;;;;5061616;28;20027;-75
2021/10/20 01:35:18;;;;;;;11.75;9.55;;;14.80;99.90;;;;;;5073339;28;20071;-74
2021/10/20 01:37:44;;;;;;;15.30;9.80;;;14.90;99.90;;;;;;5069577;28;20074;-75
2021/10/20 01:40:15;;;;;;;12.52;8.85;;;14.90;99.90;;;;;;5074877;28;20048;-75
2021/10/20 01:42:41;;;;;;;12.50;9.20;;;14.90;99.90;;;;;;5074058;28;20110;-75
2021/10/20 01:45:09;;;;;;;13.75;9.88;;;14.90;99.90;;;;;;5074579;28;20052;-76
2021/10/20 01:47:38;;;;;;;14.70;10.98;;;15.00;99.90;;;;;;5074813;28;20115;-76
2021/10/20 01:50:13;;;;;;;17.52;10.95;;;14.90;99.90;;;;;;5073550;28;20024;-76
2021/10/20 01:52:42;;;;;;;22.27;9.48;;;15.00;99.90;;;;;;5074689;28;20033;-76
2021/10/20 01:55:13;;;;;;;14.75;9.88;;;14.90;99.90;;;;;;5069567;28;20063;-76
2021/10/20 01:57:38;;;;;;;11.07;9.27;;;15.00;99.90;;;;;;5066166;28;20115;-76
2021/10/20 02:00:06;;;;;;;12.13;10.18;;;14.90;99.90;;;;;;5074575;28;20103;-75
2021/10/20 02:02:31;;;;;;;11.90;9.57;;;14.90;99.90;;;;;;5074388;28;20032;-76
2021/10/20 02:04:57;;;;;;;14.25;10.15;;;14.90;99.90;;;;;;5072765;28;20021;-76
2021/10/20 02:07:22;;;;;;;11.32;9.45;;;14.90;99.90;;;;;;5062523;28;20041;-76
2021/10/20 02:09:48;;;;;;;10.77;9.40;;;15.90;99.90;;;;;;5073692;28;20074;-76
2021/10/20 02:12:13;;;;;;;12.43;9.63;;;14.90;99.90;;;;;;5074757;28;20400;-76
2021/10/20 02:14:40;;;;;;;14.80;10.43;;;14.90;99.90;;;;;;5074919;28;20020;-75
2021/10/20 02:17:05;;;;;;;12.52;9.57;;;14.90;99.90;;;;;;5073761;28;20063;-76
2021/10/20 02:19:31;;;;;;;12.07;10.35;;;15.00;99.90;;;;;;5074795;28;20530;-76
2021/10/20 02:21:58;;;;;;;14.57;9.48;;;15.00;99.90;;;;;;5074557;28;20024;-76
2021/10/20 02:24:24;;;;;;;12.07;10.63;;;15.00;99.90;;;;;;5066835;28;20025;-77
2021/10/20 02:26:49;;;;;;;12.73;9.90;;;15.10;99.90;;;;;;5067542;28;20091;-76
2021/10/20 02:29:15;;;;;;;13.73;11.05;;;15.10;99.90;;;;;;5074528;28;20020;-76
2021/10/20 02:31:46;;;;;;;13.10;10.93;;;15.10;99.90;;;;;;5073829;28;20047;-77
2021/10/20 02:34:13;;;;;;;16.77;10.85;;;15.10;99.90;;;;;;5074424;28;20024;-76
2021/10/20 02:36:39;;;;;;;14.07;11.02;;;15.10;99.90;;;;;;5074328;28;20021;-76
2021/10/20 02:39:04;;;;;;;11.40;10.20;;;15.10;99.90;;;;;;5069613;28;20032;-75
2021/10/20 02:41:30;;;;;;;13.82;10.00;;;15.20;99.90;;;;;;5062085;28;20025;-76
2021/10/20 02:43:55;;;;;;;13.00;11.07;;;15.20;99.90;;;;;;5076291;28;20091;-76
2021/10/20 02:46:21;;;;;;;13.98;9.90;;;15.20;99.90;;;;;;5071999;28;20032;-75
2021/10/20 02:48:47;;;;;;;18.75;11.57;;;15.20;99.90;;;;;;5073428;28;20024;-75
2021/10/20 02:51:12;;;;;;;16.55;11.55;;;15.20;99.90;;;;;;5073484;28;20027;-74
2021/10/20 02:53:38;;;;;;;13.57;10.63;;;15.10;99.90;;;;;;5072570;28;20111;-76
2021/10/20 02:56:04;;;;;;;17.40;11.30;;;15.10;99.90;;;;;;5073412;28;20036;-75
2021/10/20 02:58:29;;;;;;;15.98;11.82;;;15.10;99.90;;;;;;5073255;28;20062;-76
2021/10/20 03:00:55;;;;;;;12.77;11.18;;;15.20;99.90;;;;;;5072794;28;20025;-76
2021/10/20 03:03:20;;;;;;;14.32;11.35;;;15.10;99.90;;;;;;5073173;28;20021;-76
2021/10/20 03:05:46;;;;;;;11.80;10.68;;;15.10;99.90;;;;;;5072503;28;20392;-76
2021/10/20 03:08:11;;;;;;;12.32;10.93;;;15.10;99.90;;;;;;5073636;28;20025;-77
2021/10/20 03:10:38;;;;;;;14.00;11.63;;;15.10;99.90;;;;;;5073602;28;20472;-76
2021/10/20 03:13:04;;;;;;;16.80;11.98;;;15.00;99.90;;;;;;5072774;28;20021;-75
2021/10/20 03:15:29;;;;;;;15.25;12.38;;;15.00;99.90;;;;;;5073694;28;20051;-76
2021/10/20 03:17:55;;;;;;;20.75;12.68;;;15.10;99.90;;;;;;5073517;28;20025;-75
2021/10/20 03:20:20;;;;;;;19.95;11.05;;;15.00;99.90;;;;;;5072576;28;20028;-75
2021/10/20 03:22:46;;;;;;;19.85;11.40;;;15.10;99.90;;;;;;5073525;28;20039;-75
2021/10/20 03:25:13;;;;;;;18.67;11.93;;;15.10;99.90;;;;;;5073143;28;20756;-76
2021/10/20 03:27:48;;;;;;;14.00;11.70;;;15.10;99.90;;;;;;5072611;28;20111;-76
2021/10/20 03:30:15;;;;;;;14.13;11.57;;;15.10;99.90;;;;;;5072829;28;20021;-76
2021/10/20 03:32:41;;;;;;;20.83;13.02;;;15.00;99.90;;;;;;5073296;28;20031;-76
2021/10/20 03:35:08;;;;;;;14.18;12.65;;;15.10;99.90;;;;;;5072202;28;20020;-77
2021/10/20 03:37:34;;;;;;;16.08;12.27;;;15.10;99.90;;;;;;5073365;28;20027;-76
2021/10/20 03:39:59;;;;;;;16.95;12.45;;;15.10;99.90;;;;;;5072774;28;20025;-75
2021/10/20 03:42:25;;;;;;;16.92;12.32;;;15.10;99.90;;;;;;5072093;28;20518;-75
2021/10/20 03:44:51;;;;;;;12.80;11.45;;;15.10;99.90;;;;;;5068458;28;20020;-74
2021/10/20 03:47:19;;;;;;;13.05;11.75;;;15.10;99.90;;;;;;5072435;28;20381;-75
2021/10/20 03:49:45;;;;;;;23.30;11.75;;;15.10;99.90;;;;;;5071232;28;20025;-75
2021/10/20 03:52:11;;;;;;;18.88;12.63;;;15.10;99.90;;;;;;5072933;28;20111;-75
2021/10/20 03:54:36;;;;;;;13.60;11.88;;;15.10;99.90;;;;;;5058412;28;20120;-74
2021/10/20 03:57:02;;;;;;;15.38;11.68;;;15.20;99.90;;;;;;5071548;28;20465;-75
2021/10/20 03:59:28;;;;;;;23.77;12.57;;;15.20;99.90;;;;;;5072153;28;20021;-75
2021/10/20 04:01:53;;;;;;;15.98;12.00;;;15.10;99.90;;;;;;5071442;28;20017;-76
2021/10/20 04:04:19;;;;;;;18.20;12.00;;;15.20;99.90;;;;;;5073401;28;20052;-75
2021/10/20 04:06:45;;;;;;;18.80;12.38;;;15.20;99.90;;;;;;5072033;28;20439;-75
2021/10/20 04:09:11;;;;;;;13.20;11.88;;;15.20;99.90;;;;;;5072076;28;20017;-76
2021/10/20 04:11:36;;;;;;;26.67;12.15;;;15.20;99.90;;;;;;5058165;28;20488;-75
2021/10/20 04:14:02;;;;;;;16.05;12.43;;;15.20;99.90;;;;;;5071800;28;20748;-75
2021/10/20 04:16:30;;;;;;;15.13;11.93;;;15.20;99.90;;;;;;5071358;28;20041;-74
2021/10/20 04:18:56;;;;;;;18.80;11.82;;;15.20;99.90;;;;;;5071754;28;20107;-76
2021/10/20 04:21:21;;;;;;;14.77;11.35;;;15.30;99.90;;;;;;5072629;28;20102;-74
2021/10/20 04:23:47;;;;;;;15.55;11.43;;;15.30;99.90;;;;;;5071997;28;20100;-75
2021/10/20 04:26:13;;;;;;;15.50;11.43;;;15.30;99.90;;;;;;5072879;28;20044;-76
2021/10/20 04:28:39;;;;;;;15.00;11.20;;;15.40;99.90;;;;;;5072552;28;20013;-75
2021/10/20 04:31:05;;;;;;;14.85;10.05;;;15.50;99.90;;;;;;5071961;28;20032;-74
2021/10/20 04:33:30;;;;;;;15.80;10.98;;;15.50;99.90;;;;;;5071196;28;20074;-73
2021/10/20 04:35:56;;;;;;;15.32;10.82;;;15.70;99.90;;;;;;5060066;28;20476;-74
2021/10/20 04:38:21;;;;;;;12.73;10.57;;;15.80;99.90;;;;;;5059608;28;20452;-76
2021/10/20 04:40:50;;;;;;;13.40;10.52;;;15.90;99.90;;;;;;5068455;28;20052;-75
2021/10/20 04:43:16;;;;;;;10.68;9.43;;;16.10;99.90;;;;;;5066834;28;20041;-75
2021/10/20 04:45:41;;;;;;;13.77;10.55;;;16.10;99.90;;;;;;5089179;28;20032;-76
2021/10/20 04:48:07;;;;;;;13.32;9.73;;;16.20;99.90;;;;;;5087076;28;20049;-75
2021/10/20 04:50:32;;;;;;;11.32;10.10;;;16.20;99.90;;;;;;5084538;28;20452;-75
2021/10/20 04:52:58;;;;;;;14.43;10.10;;;16.30;99.90;;;;;;5092446;28;20024;-75
2021/10/20 04:55:24;;;;;;;11.23;10.05;;;16.20;99.90;;;;;;5092729;28;20023;-75
2021/10/20 04:57:52;;;;;;;16.02;11.52;;;16.20;99.90;;;;;;5092369;28;20510;-75
2021/10/20 05:00:19;;;;;;;12.52;10.40;;;16.30;99.90;;;;;;5091808;28;20020;-75
2021/10/20 05:02:44;;;;;;;13.60;11.07;;;16.30;99.90;;;;;;5094209;28;20107;-75
2021/10/20 05:05:10;;;;;;;13.40;10.02;;;16.30;99.90;;;;;;5095531;28;20016;-75
2021/10/20 05:07:50;;;;;;;10.55;9.50;;;16.30;99.90;;;;;;5096512;28;20040;-76
2021/10/20 05:10:17;;;;;;;12.70;10.65;;;16.30;99.90;;;;;;5096331;28;20032;-75
2021/10/20 05:12:43;;;;;;;12.23;10.20;;;16.20;99.90;;;;;;5083420;28;20380;-74
2021/10/20 05:15:09;;;;;;;11.25;10.13;;;16.20;99.90;;;;;;5094079;28;20024;-75
2021/10/20 05:17:34;;;;;;;10.82;9.43;;;16.20;99.90;;;;;;5096192;28;20456;-75
2021/10/20 05:20:01;;;;;;;9.57;8.65;;;16.20;99.90;;;;;;5095470;28;20130;-74
2021/10/20 05:22:26;;;;;;;16.75;10.15;;;16.10;99.90;;;;;;5088025;28;20028;-74
2021/10/20 05:24:52;;;;;;;14.38;9.77;;;16.10;99.90;;;;;;5090027;28;20425;-73
2021/10/20 05:27:18;;;;;;;11.38;10.13;;;16.10;99.90;;;;;;5090265;28;20032;-75
2021/10/20 05:29:43;;;;;;;13.43;9.10;;;16.00;99.90;;;;;;5087045;28;20103;-74
2021/10/20 05:32:09;;;;;;;14.57;9.27;;;16.10;99.90;;;;;;5094249;28;20027;-76
2021/10/20 05:34:34;;;;;;;15.40;9.27;;;16.00;99.90;;;;;;5093850;28;20113;-76
2021/10/20 05:37:00;;;;;;;11.45;8.98;;;15.90;99.90;;;;;;5094504;28;20024;-74
2021/10/20 05:39:25;;;;;;;13.40;9.77;;;16.00;99.90;;;;;;5088589;28;20103;-76
2021/10/20 05:41:51;;;;;;;10.10;8.85;;;16.00;99.90;;;;;;5091118;28;20034;-76
2021/10/20 05:44:17;;;;;;;11.35;9.63;;;15.90;99.90;;;;;;5074232;28;20020;-75
2021/10/20 05:46:44;;;;;;;14.35;9.55;;;15.90;99.90;;;;;;5071823;28;20048;-75
2021/10/20 05:49:09;;;;;;;12.10;9.25;;;15.90;99.90;;;;;;5068772;28;20024;-75
2021/10/20 05:51:35;;;;;;;9.82;8.82;;;15.90;99.90;;;;;;5074700;28;20028;-74
2021/10/20 05:54:01;;;;;;;17.63;8.07;;;15.90;99.90;;;;;;5074955;28;20028;-74
2021/10/20 05:56:26;;;;;;;9.25;8.35;;;15.80;99.90;;;;;;5073665;28;20483;-75
2021/10/20 05:58:52;;;;;;;9.88;8.98;;;15.90;99.90;;;;;;5073540;28;20107;-75
2021/10/20 06:01:19;;;;;;;9.63;7.65;;;15.80;99.90;;;;;;5073972;28;20041;-75
2021/10/20 06:03:44;;;;;;;11.93;9.00;;;15.80;99.90;;;;;;5073336;28;20126;-75
2021/10/20 06:06:10;;;;;;;9.60;8.65;;;15.80;99.90;;;;;;5073333;28;20127;-76
2021/10/20 06:08:35;;;;;;;10.32;9.05;;;15.80;99.90;;;;;;5072974;28;20029;-76
2021/10/20 06:11:01;;;;;;;9.77;8.32;;;15.80;99.90;;;;;;5073276;28;20016;-75
2021/10/20 06:13:27;;;;;;;11.48;8.30;;;15.70;99.90;;;;;;5073495;28;20468;-75
2021/10/20 06:15:52;;;;;;;10.70;8.68;;;15.70;99.90;;;;;;5073082;28;20025;-76
2021/10/20 06:18:18;;;;;;;13.90;8.65;;;15.80;99.90;;;;;;5073689;28;20017;-77
2021/10/20 06:20:43;;;;;;;13.85;8.60;;;15.70;99.90;;;;;;5073360;28;20023;-76
2021/10/20 06:23:09;;;;;;;16.83;8.48;;;15.70;99.90;;;;;;5073049;28;20021;-74
2021/10/20 06:25:36;;;;;;;9.73;8.70;;;15.60;99.90;;;;;;5071958;28;20029;-74
2021/10/20 06:28:01;;;;;;;15.32;9.50;;;15.60;99.90;;;;;;5074821;28;20028;-76
2021/10/20 06:30:27;;;;;;;8.90;8.10;;;15.60;99.90;;;;;;5072785;28;20016;-74
2021/10/20 06:32:53;;;;;;;8.93;8.13;;;15.50;99.90;;;;;;5073147;28;20055;-74
2021/10/20 06:35:18;;;;;;;8.90;7.97;;;15.50;99.90;;;;;;5073236;28;20441;-75
2021/10/20 06:37:51;;;;;;;9.18;7.88;;;15.50;99.90;;;;;;5072488;28;20035;-76
2021/10/20 06:40:16;;;;;;;9.55;7.80;;;15.50;99.90;;;;;;5071338;28;20051;-75
2021/10/20 06:42:42;;;;;;;9.27;8.32;;;15.40;99.90;;;;;;5072725;28;20075;-75
2021/10/20 06:45:08;;;;;;;14.95;8.40;;;15.40;99.90;;;;;;5072485;28;20021;-76
2021/10/20 06:47:37;;;;;;;10.18;8.48;;;15.50;99.90;;;;;;5072972;28;20032;-74
2021/10/20 06:50:04;;;;;;;12.63;7.70;;;15.50;99.90;;;;;;5070995;28;20031;-77
2021/10/20 06:52:29;;;;;;;14.75;8.65;;;15.50;99.90;;;;;;5071245;28;20016;-77
2021/10/20 06:54:55;;;;;;;9.60;8.18;;;15.40;99.90;;;;;;5070984;28;20442;-77
2021/10/20 06:57:20;;;;;;;11.35;8.43;;;15.40;99.90;;;;;;5071967;28;20868;-76
2021/10/20 06:59:46;;;;;;;9.38;7.85;;;15.40;99.90;;;;;;5071081;28;20032;-76
2021/10/20 07:02:12;;;;;;;8.73;7.97;;;15.40;99.90;;;;;;5072189;28;20078;-76
2021/10/20 07:04:37;;;;;;;8.90;8.00;;;15.40;99.90;;;;;;5073055;28;20034;-78
2021/10/20 07:07:05;;;;;;;9.10;8.23;;;15.30;99.90;;;;;;5069722;28;20040;-77
2021/10/20 07:09:30;;;;;;;9.25;8.35;;;15.30;99.90;;;;;;5072697;28;20013;-76
2021/10/20 07:12:02;;;;;;;8.82;7.95;;;15.30;99.90;;;;;;5071986;28;20365;-75
2021/10/20 07:14:28;;;;;;;11.05;9.25;;;15.20;99.90;;;;;;5072992;28;20562;-75
2021/10/20 07:16:57;;;;;;;10.63;8.88;;;15.20;99.90;;;;;;5071513;28;20060;-73
2021/10/20 07:19:23;;;;;;;16.05;9.77;;;15.10;99.90;;;;;;5073447;28;20033;-75
2021/10/20 07:21:49;;;;;;;9.77;8.88;;;15.20;99.90;;;;;;5073009;28;20023;-75
2021/10/20 07:24:18;;;;;;;10.50;9.35;;;15.10;99.90;;;;;;5073152;28;20497;-75
2021/10/20 07:26:43;;;;;;;10.13;9.02;;;15.10;99.90;;;;;;5071685;28;20391;-76
2021/10/20 07:29:09;;;;;;;10.65;9.18;;;15.10;99.90;;;;;;5073878;28;20021;-77
2021/10/20 07:31:35;;;;;;;13.82;9.25;;;15.10;99.90;;;;;;5074056;28;20103;-74
2021/10/20 07:34:01;;;;;;;9.55;8.65;;;15.10;99.90;;;;;;5072607;28;20472;-74
2021/10/20 07:36:27;;;;;;;11.43;9.18;;;15.10;99.90;;;;;;5073790;28;20043;-76
2021/10/20 07:38:53;;;;;;;10.63;9.38;;;15.10;99.90;;;;;;5070499;28;20094;-77
2021/10/20 07:41:19;;;;;;;10.27;9.02;;;15.00;99.90;;;;;;5072923;28;20033;-76
2021/10/20 07:43:44;;;;;;;15.23;9.35;;;15.00;99.90;;;;;;5073315;28;20123;-77
2021/10/20 07:46:10;;;;;;;12.55;8.95;;;15.00;99.90;;;;;;5072811;28;20064;-77
2021/10/20 07:48:36;;;;;;;11.75;8.82;;;15.00;99.90;;;;;;5072278;28;20064;-77
2021/10/20 07:51:01;;;;;;;10.38;9.38;;;15.00;99.90;;;;;;5072815;28;20111;-76
2021/10/20 07:53:27;;;;;;;11.32;9.23;;;15.00;99.90;;;;;;5073298;28;20017;-76
2021/10/20 07:55:52;;;;;;;9.15;8.32;;;15.00;99.90;;;;;;5061390;28;20024;-78
2021/10/20 07:58:19;;;;;;;11.60;9.15;;;15.80;99.90;;;;;;5071181;28;20016;-76
2021/10/20 08:00:44;;;;;;;13.27;8.60;;;15.00;99.90;;;;;;5072186;28;20113;-75
2021/10/20 08:03:10;;;;;;;10.82;9.05;;;15.00;99.90;;;;;;5071273;28;20127;-74
2021/10/20 08:05:36;;;;;;;10.30;7.95;;;15.00;99.90;;;;;;5066475;28;20089;-75
2021/10/20 08:08:02;;;;;;;9.43;8.50;;;15.00;99.90;;;;;;5065644;28;20020;-76
2021/10/20 08:10:29;;;;;;;10.00;9.00;;;15.10;99.90;;;;;;5071860;28;20020;-77
2021/10/20 08:12:56;;;;;;;9.93;8.55;;;15.10;99.90;;;;;;5071739;28;20028;-75
2021/10/20 08:15:23;;;;;;;9.70;8.70;;;15.20;99.90;;;;;;5058640;28;20100;-74
2021/10/20 08:17:49;;;;;;;11.10;8.52;;;15.30;99.90;;;;;;5060268;28;20033;-74
2021/10/20 08:20:18;;;;;;;9.35;8.45;;;15.30;99.90;;;;;;5056512;28;20028;-76
2021/10/20 08:22:45;;;;;;;9.63;8.63;;;15.40;99.90;;;;;;5059249;28;20559;-76
2021/10/20 08:25:11;;;;;;;10.45;9.48;;;15.40;99.90;;;;;;5063550;28;20297;-74
2021/10/20 08:27:37;;;;;;;10.27;8.35;;;15.50;99.90;;;;;;5062520;28;20607;-75
2021/10/20 08:30:05;;;;;;;13.32;8.18;;;15.60;99.90;;;;;;5057234;28;20033;-75
2021/10/20 08:32:31;;;;;;;9.65;8.77;;;15.60;99.90;;;;;;5062254;28;20056;-74
2021/10/20 08:34:56;;;;;;;10.00;9.00;;;15.70;99.90;;;;;;5068589;28;21599;-76
2021/10/20 08:37:22;;;;;;;10.07;8.68;;;15.80;99.90;;;;;;5061303;28;20407;-76
2021/10/20 08:39:49;;;;;;;10.82;8.50;;;16.00;99.90;;;;;;5067445;28;20017;-74
2021/10/20 08:42:14;;;;;;;12.50;9.13;;;16.10;99.90;;;;;;5067715;28;20065;-76
2021/10/20 08:44:40;;;;;;;10.98;9.32;;;16.20;99.90;;;;;;5068498;28;20022;-76
2021/10/20 08:47:08;;;;;;;12.07;9.70;;;16.30;99.90;;;;;;5060561;28;20400;-77
2021/10/20 08:49:36;;;;;;;9.95;8.98;;;16.30;99.90;;;;;;5069479;28;20124;-75
2021/10/20 08:52:05;;;;;;;10.43;9.50;;;16.20;99.90;;;;;;5062761;28;20071;-74
2021/10/20 08:54:31;;;;;;;11.55;10.45;;;16.30;99.90;;;;;;5067556;28;20025;-75
2021/10/20 08:56:57;;;;;;;13.73;10.20;;;16.20;99.90;;;;;;5065969;28;20020;-75
2021/10/20 08:59:23;;;;;;;13.98;9.35;;;16.20;99.90;;;;;;5061090;28;20021;-76
2021/10/20 09:01:48;;;;;;;15.38;10.10;;;16.30;99.90;;;;;;5068711;28;20072;-75
2021/10/20 09:04:19;;;;;;;15.57;10.82;;;16.30;99.90;;;;;;5060448;28;20491;-76
2021/10/20 09:06:44;;;;;;;12.13;10.50;;;16.40;99.90;;;;;;5070810;28;20064;-74
2021/10/20 09:09:10;;;;;;;13.18;10.68;;;16.40;99.90;;;;;;5071037;28;20059;-75
2021/10/20 09:11:37;;;;;;;13.70;10.90;;;16.50;99.90;;;;;;5064581;28;20410;-76
2021/10/20 09:14:11;;;;;;;14.75;12.27;;;16.50;99.90;;;;;;5072435;28;20060;-75
2021/10/20 09:16:42;;;;;;;13.25;11.30;;;16.50;99.90;;;;;;5067800;28;20039;-76
2021/10/20 09:19:21;;;;;;;11.90;10.85;;;16.50;99.90;;;;;;5058418;28;20120;-76
2021/10/20 09:21:53;;;;;;;13.85;12.07;;;16.60;99.90;;;;;;5062341;28;20052;-75
2021/10/20 09:24:19;;;;;;;13.80;12.35;;;16.60;99.90;;;;;;5066304;28;20029;-74
2021/10/20 09:26:45;;;;;;;13.52;12.15;;;16.70;99.90;;;;;;5058075;28;20121;-76
2021/10/20 09:29:28;;;;;;;12.57;11.27;;;16.70;99.90;;;;;;5066051;28;20029;-75
2021/10/20 09:31:54;;;;;;;13.85;11.75;;;16.70;99.90;;;;;;5063451;28;20025;-75
2021/10/20 09:34:20;;;;;;;10.57;9.57;;;16.70;99.90;;;;;;5058147;28;20036;-76
2021/10/20 09:36:49;;;;;;;10.32;9.38;;;16.70;99.90;;;;;;5053897;28;20024;-75
2021/10/20 09:39:15;;;;;;;10.93;9.77;;;16.80;99.90;;;;;;5059669;28;20017;-77
2021/10/20 09:41:41;;;;;;;10.65;9.75;;;16.70;99.90;;;;;;5065793;28;20017;-75
2021/10/20 09:44:09;;;;;;;10.50;9.40;;;16.70;99.90;;;;;;5064928;28;21476;-74
2021/10/20 09:46:38;;;;;;;10.13;9.02;;;16.70;99.90;;;;;;5066316;28;20036;-75
2021/10/20 09:49:20;;;;;;;10.32;8.82;;;16.70;99.90;;;;;;5066747;28;20031;-74
2021/10/20 09:51:47;;;;;;;11.40;10.23;;;16.60;99.90;;;;;;5067495;28;20067;-75
2021/10/20 09:54:19;;;;;;;10.48;9.48;;;16.60;99.90;;;;;;5068292;28;20021;-75
2021/10/20 09:56:58;;;;;;;12.85;8.98;;;16.60;99.90;;;;;;5058978;28;20077;-74
2021/10/20 09:59:25;;;;;;;9.73;8.82;;;16.70;99.90;;;;;;5058173;28;20160;-74
2021/10/20 10:01:51;;;;;;;10.15;9.15;;;16.80;99.90;;;;;;5067276;28;20416;-76
2021/10/20 10:04:17;;;;;;;10.30;8.45;;;17.00;99.90;;;;;;5067572;28;20017;-75
2021/10/20 10:06:44;;;;;;;8.82;7.93;;;17.10;99.90;;;;;;5064117;28;20513;-74
2021/10/20 10:09:10;;;;;;;9.07;7.97;;;17.20;99.90;;;;;;5057512;28;20021;-74
2021/10/20 10:11:39;;;;;;;9.10;8.05;;;17.40;99.90;;;;;;5063622;28;20108;-75
2021/10/20 10:14:05;;;;;;;9.15;8.25;;;17.50;99.90;;;;;;5063534;28;20021;-75
2021/10/20 10:16:33;;;;;;;8.02;7.25;;;17.60;99.90;;;;;;5065513;28;20385;-74
2021/10/20 10:19:00;;;;;;;7.93;7.22;;;17.60;99.90;;;;;;5065766;28;20074;-74
2021/10/20 10:21:37;;;;;;;8.30;7.55;;;17.60;99.90;;;;;;5060771;28;20732;-75
2021/10/20 10:24:12;;;;;;;7.80;7.03;;;17.60;99.90;;;;;;5065782;28;20037;-74
2021/10/20 10:26:56;;;;;;;9.07;7.28;;;17.50;99.90;;;;;;5068275;28;20511;-74
2021/10/20 10:29:22;;;;;;;11.15;7.68;;;17.40;99.90;;;;;;5060639;28;20485;-74
2021/10/20 10:31:51;;;;;;;8.38;6.95;;;17.40;99.90;;;;;;5059963;28;20090;-74
2021/10/20 10:34:38;;;;;;;7.78;7.07;;;17.40;99.90;;;;;;5055821;28;20123;-74
2021/10/20 10:37:05;;;;;;;11.15;7.85;;;17.40;99.90;;;;;;5062068;28;20020;-74
2021/10/20 10:39:31;;;;;;;8.43;7.00;;;17.40;99.90;;;;;;5064873;28;20087;-78
2021/10/20 10:42:00;;;;;;;10.80;7.00;;;17.30;99.90;;;;;;5068506;28;20047;-76
2021/10/20 10:44:31;;;;;;;7.93;6.78;;;17.30;99.90;;;;;;5062572;28;20360;-75
2021/10/20 10:47:25;;;;;;;10.68;6.95;;;17.40;99.90;;;;;;5069950;28;20036;-77
2021/10/20 10:49:53;;;;;;;16.20;7.15;;;17.50;99.90;;;;;;5056595;28;20029;-77
2021/10/20 10:52:30;;;;;;;10.68;7.50;;;17.60;99.90;;;;;;5059185;28;20071;-75
2021/10/20 10:55:09;;;;;;;11.45;6.60;;;17.60;99.90;;;;;;5064549;28;20071;-76
2021/10/20 10:57:58;;;;;;;7.10;6.40;;;17.70;99.90;;;;;;5066591;28;20071;-74
2021/10/20 11:00:34;;;;;;;7.05;6.35;;;17.70;99.90;;;;;;5062057;28;20408;-75
2021/10/20 11:03:17;;;;;;;7.60;6.68;;;17.80;99.90;;;;;;5071209;28;20032;-76
2021/10/20 11:05:55;;;;;;;10.38;7.30;;;17.70;99.90;;;;;;5070169;28;20452;-75
2021/10/20 11:08:22;;;;;;;11.40;6.47;;;17.60;99.90;;;;;;5071862;28;20025;-75
2021/10/20 11:10:48;;;;;;;7.32;6.47;;;17.50;99.90;;;;;;5072218;28;20024;-74
2021/10/20 11:13:16;;;;;;;9.50;6.15;;;17.50;99.90;;;;;;5073674;28;20025;-75
2021/10/20 11:15:43;;;;;;;6.97;6.28;;;17.40;99.90;;;;;;5071695;28;20036;-76
2021/10/20 11:18:09;;;;;;;8.35;6.25;;;17.40;99.90;;;;;;5069125;28;20028;-76
2021/10/20 11:20:37;;;;;;;18.02;13.13;;;17.40;99.90;;;;;;5064929;28;20048;-74
2021/10/20 11:23:06;;;;;;;8.00;5.95;;;17.40;99.90;;;;;;5073212;28;20496;-76
2021/10/20 11:25:32;;;;;;;6.55;6.00;;;17.40;99.90;;;;;;5058121;28;20369;-75
2021/10/20 11:27:58;;;;;;;10.02;6.22;;;17.40;99.90;;;;;;5072809;28;20085;-76
2021/10/20 11:30:27;;;;;;;6.82;5.97;;;17.30;99.90;;;;;;5072931;28;20062;-76
2021/10/20 11:32:53;;;;;;;8.48;6.93;;;17.30;99.90;;;;;;5072416;28;20028;-76
2021/10/20 11:35:24;;;;;;;8.60;6.95;;;17.30;99.90;;;;;;5072656;28;20418;-76
2021/10/20 11:38:00;;;;;;;7.10;6.38;;;17.30;99.90;;;;;;5071909;28;20028;-76
2021/10/20 11:40:31;;;;;;;7.15;6.47;;;17.30;99.90;;;;;;5069873;28;20028;-76
2021/10/20 11:42:57;;;;;;;18.27;12.25;;;17.40;99.90;;;;;;5070464;28;20048;-74
2021/10/20 11:45:22;;;;;;;16.20;12.13;;;17.40;99.90;;;;;;5056634;28;20443;-75
2021/10/20 11:47:48;;;;;;;9.07;6.70;;;17.50;99.90;;;;;;5070422;28;20055;-75
2021/10/20 11:50:17;;;;;;;12.23;9.27;;;17.60;99.90;;;;;;5071266;28;20048;-74
2021/10/20 11:52:44;;;;;;;7.50;6.15;;;17.50;99.90;;;;;;5072022;28;20412;-74
2021/10/20 11:55:11;;;;;;;9.90;6.80;;;17.50;99.90;;;;;;5072091;28;20111;-76
2021/10/20 11:57:42;;;;;;;6.40;5.80;;;17.50;99.90;;;;;;5036363;28;20116;-74
2021/10/20 12:00:09;;;;;;;7.18;6.57;;;17.50;99.90;;;;;;5051815;28;20031;-75
2021/10/20 12:02:35;;;;;;;7.32;6.63;;;17.50;99.90;;;;;;5069234;28;20028;-74
2021/10/20 12:05:00;;;;;;;7.82;6.75;;;17.50;99.90;;;;;;5072430;28;20078;-76
2021/10/20 12:07:30;;;;;;;11.65;6.53;;;17.50;99.90;;;;;;5071071;28;20036;-76
2021/10/20 12:09:58;;;;;;;7.43;6.72;;;17.50;99.90;;;;;;5073010;28;20020;-76
2021/10/20 12:12:24;;;;;;;7.35;5.80;;;17.40;99.90;;;;;;5072537;28;20021;-77
2021/10/20 12:14:54;;;;;;;8.77;5.95;;;17.40;99.90;;;;;;5071850;28;20024;-77
2021/10/20 12:17:19;;;;;;;6.88;6.18;;;17.50;99.90;;;;;;5059897;28;20036;-76
2021/10/20 12:19:45;;;;;;;9.32;6.60;;;17.40;99.90;;;;;;5071035;28;20465;-76
2021/10/20 12:22:13;;;;;;;8.45;5.53;;;17.50;99.90;;;;;;5071051;28;20097;-76
2021/10/20 12:24:48;;;;;;;7.43;5.75;;;17.50;99.90;;;;;;5068317;28;20033;-77
2021/10/20 12:27:15;;;;;;;9.13;5.63;;;17.50;99.90;;;;;;5072040;28;20423;-76
2021/10/20 12:29:44;;;;;;;5.68;4.85;;;17.60;99.90;;;;;;5071646;28;20472;-77
2021/10/20 12:32:19;;;;;;;6.15;4.72;;;17.60;99.90;;;;;;5072361;28;20089;-75
2021/10/20 12:35:06;;;;;;;9.77;5.40;;;17.70;99.90;;;;;;5072624;28;20025;-75